createdAt,value
2023-04-15T00:01:27.084Z,98087.02
2023-04-15T00:04:20.710Z,98091.39
2023-04-15T00:07:16.470Z,98094.20
2023-04-15T00:10:12.353Z,98095.42
2023-04-15T00:13:06.322Z,98097.02
2023-04-15T00:15:59.024Z,98089.46
2023-04-15T00:18:52.070Z,98089.06
2023-04-15T00:21:45.299Z,98087.67
2023-04-15T00:24:29.335Z,98089.13
2023-04-15T00:27:22.392Z,98093.02
2023-04-15T00:30:10.657Z,98099.10
2023-04-15T00:32:55.491Z,98100.64
2023-04-15T00:35:28.127Z,98099.05
2023-04-15T00:38:14.197Z,98104.81
2023-04-15T00:41:07.787Z,98106.68
2023-04-15T00:44:00.791Z,98108.23
2023-04-15T00:46:48.132Z,98101.05
2023-04-15T00:49:20.928Z,98099.22
2023-04-15T00:52:16.214Z,98101.80
2023-04-15T00:54:58.864Z,98102.95
2023-04-15T00:57:52.122Z,98102.67
2023-04-15T01:00:46.280Z,98102.66
2023-04-15T01:03:32.390Z,98099.30
2023-04-15T01:06:27.217Z,98101.52
2023-04-15T01:09:03.529Z,98099.88
2023-04-15T01:11:57.269Z,98105.69
2023-04-15T01:14:50.326Z,98096.30
2023-04-15T01:17:43.759Z,98085.92
2023-04-15T01:20:37.719Z,98085.86
2023-04-15T01:23:19.539Z,98092.05
2023-04-15T01:26:13.061Z,98097.71
2023-04-15T01:29:06.762Z,98093.60
2023-04-15T01:31:59.548Z,98089.80
2023-04-15T01:34:53.028Z,98093.14
2023-04-15T01:37:29.491Z,98092.15
2023-04-15T01:40:23.546Z,98091.32
2023-04-15T01:43:16.840Z,98091.04
2023-04-15T01:46:10.625Z,98093.20
2023-04-15T01:49:03.460Z,98097.61
2023-04-15T01:52:47.825Z,98102.16
2023-04-15T01:55:22.054Z,98103.27
2023-04-15T01:58:03.765Z,98103.33
2023-04-15T02:00:50.316Z,98105.47
2023-04-15T02:03:43.570Z,98109.55
2023-04-15T02:06:36.782Z,98113.61
2023-04-15T02:09:30.102Z,98113.29
2023-04-15T02:12:23.186Z,98109.99
2023-04-15T02:15:17.445Z,98109.00
2023-04-15T02:18:11.972Z,98110.59
2023-04-15T02:21:07.254Z,98110.44
2023-04-15T02:24:00.003Z,98107.86
2023-04-15T02:26:46.812Z,98103.69
2023-04-15T02:29:23.648Z,98100.89
2023-04-15T02:32:07.402Z,98099.48
2023-04-15T02:34:51.998Z,98092.30
2023-04-15T02:37:37.153Z,98093.67
2023-04-15T02:40:30.857Z,98097.00
2023-04-15T02:43:22.648Z,98097.55
2023-04-15T02:46:15.440Z,98098.80
2023-04-15T02:49:08.657Z,98102.11
2023-04-15T02:52:01.719Z,98100.90
2023-04-15T02:54:44.449Z,98096.20
2023-04-15T02:57:39.223Z,98087.99
2023-04-15T03:00:32.311Z,98093.97
2023-04-15T03:03:11.089Z,98098.05
2023-04-15T03:06:06.225Z,98112.45
2023-04-15T03:08:50.476Z,98114.24
2023-04-15T03:11:43.288Z,98122.16
2023-04-15T03:14:35.973Z,98124.27
2023-04-15T03:17:28.969Z,98127.78
2023-04-15T03:20:22.024Z,98129.88
2023-04-15T03:23:13.560Z,98132.70
2023-04-15T03:26:07.074Z,98136.05
2023-04-15T03:29:00.196Z,98134.86
2023-04-15T03:31:53.252Z,98137.66
2023-04-15T03:34:46.123Z,98145.23
2023-04-15T03:37:38.809Z,98146.87
2023-04-15T03:40:31.748Z,98148.98
2023-04-15T03:43:24.329Z,98156.20
2023-04-15T03:46:17.039Z,98167.44
2023-04-15T03:49:10.940Z,98166.06
2023-04-15T03:51:56.746Z,98168.52
2023-04-15T03:54:51.577Z,98169.92
2023-04-15T03:57:39.144Z,98160.66
2023-04-15T04:00:22.915Z,98157.48
2023-04-15T04:03:06.738Z,98152.73
2023-04-15T04:05:59.662Z,98153.21
2023-04-15T04:08:52.060Z,98166.31
2023-04-15T04:11:45.834Z,98163.70
2023-04-15T04:14:38.465Z,98154.79
2023-04-15T04:17:31.119Z,98144.13
2023-04-15T04:20:24.421Z,98136.98
2023-04-15T04:23:09.289Z,98147.64
2023-04-15T04:26:01.269Z,98162.29
2023-04-15T04:28:52.942Z,98174.88
2023-04-15T04:31:40.162Z,98186.63
2023-04-15T04:34:26.728Z,98187.40
2023-04-15T04:37:19.810Z,98180.80
2023-04-15T04:40:14.261Z,98178.35
2023-04-15T04:43:07.109Z,98174.82
2023-04-15T04:45:41.392Z,98171.94
2023-04-15T04:48:34.352Z,98175.36
2023-04-15T04:51:28.183Z,98180.64
2023-04-15T04:54:21.422Z,98184.17
2023-04-15T04:57:10.245Z,98186.64
2023-04-15T04:59:42.896Z,98181.09
2023-04-15T05:02:36.621Z,98184.49
2023-04-15T05:05:29.407Z,98187.58
2023-04-15T05:08:22.266Z,98193.20
2023-04-15T05:11:16.376Z,98196.40
2023-04-15T05:14:09.513Z,98201.34
2023-04-15T05:17:02.481Z,98214.48
2023-04-15T05:19:55.128Z,98213.78
2023-04-15T05:22:48.213Z,98213.41
2023-04-15T05:25:32.504Z,98225.44
2023-04-15T05:28:25.398Z,98228.90
2023-04-15T05:31:08.802Z,98221.57
2023-04-15T05:33:50.556Z,98218.55
2023-04-15T05:36:26.600Z,98211.73
2023-04-15T05:39:19.427Z,98212.66
2023-04-15T05:42:12.269Z,98211.83
2023-04-15T05:45:09.168Z,98216.65
2023-04-15T05:47:54.467Z,98219.30
2023-04-15T05:50:32.408Z,98213.95
2023-04-15T05:53:16.352Z,98215.38
2023-04-15T05:55:49.099Z,98221.05
2023-04-15T05:58:24.724Z,98219.60
2023-04-15T06:00:58.920Z,98223.08
2023-04-15T06:03:33.814Z,98216.65
2023-04-15T06:06:07.803Z,98222.60
2023-04-15T06:08:40.664Z,98217.67
2023-04-15T06:11:16.426Z,98216.83
2023-04-15T06:13:51.922Z,98216.17
2023-04-15T06:16:33.664Z,98219.38
2023-04-15T06:19:06.350Z,98225.12
2023-04-15T06:21:50.309Z,98224.52
2023-04-15T06:24:25.649Z,98223.58
2023-04-15T06:27:02.324Z,98219.40
2023-04-15T06:29:34.831Z,98215.19
2023-04-15T06:32:08.318Z,98213.94
2023-04-15T06:34:43.820Z,98212.52
2023-04-15T06:37:26.309Z,98212.35
2023-04-15T06:40:02.454Z,98209.84
2023-04-15T06:42:46.353Z,98213.63
2023-04-15T06:45:22.161Z,98218.89
2023-04-15T06:47:54.872Z,98221.99
2023-04-15T06:50:32.907Z,98227.54
2023-04-15T06:53:06.747Z,98223.88
2023-04-15T06:55:42.841Z,98223.14
2023-04-15T06:58:15.762Z,98224.13
2023-04-15T07:00:48.880Z,98226.88
2023-04-15T07:03:22.556Z,98233.53
2023-04-15T07:05:57.921Z,98238.88
2023-04-15T07:08:30.728Z,98242.84
2023-04-15T07:11:03.472Z,98248.28
2023-04-15T07:13:56.438Z,98250.41
2023-04-15T07:16:32.431Z,98251.17
2023-04-15T07:19:15.112Z,98255.30
2023-04-15T07:21:59.184Z,98256.71
2023-04-15T07:24:32.279Z,98256.88
2023-04-15T07:27:05.423Z,98257.17
2023-04-15T07:29:37.973Z,98259.81
2023-04-15T07:32:15.613Z,98259.64
2023-04-15T07:34:52.881Z,98257.39
2023-04-15T07:37:25.800Z,98251.88
2023-04-15T07:39:58.721Z,98255.33
2023-04-15T07:42:42.620Z,98259.32
2023-04-15T07:45:17.794Z,98259.30
2023-04-15T07:47:50.980Z,98263.40
2023-04-15T07:50:23.972Z,98260.90
2023-04-15T07:52:57.478Z,98265.88
2023-04-15T07:55:30.759Z,98267.77
2023-04-15T07:58:03.319Z,98273.48
2023-04-15T08:00:36.259Z,98272.92
2023-04-15T08:03:09.417Z,98273.27
2023-04-15T08:05:42.289Z,98271.73
2023-04-15T08:08:18.153Z,98269.27
2023-04-15T08:10:52.601Z,98274.44
2023-04-15T08:13:26.046Z,98279.04
2023-04-15T08:16:20.503Z,98275.33
2023-04-15T08:18:56.765Z,98275.11
2023-04-15T08:21:31.031Z,98277.80
2023-04-15T08:24:03.890Z,98278.17
2023-04-15T08:26:37.206Z,98275.34
2023-04-15T08:29:10.986Z,98284.00
2023-04-15T08:31:43.645Z,98290.99
2023-04-15T08:34:16.532Z,98290.79
2023-04-15T08:36:49.519Z,98291.24
2023-04-15T08:39:25.680Z,98289.94
2023-04-15T08:42:01.788Z,98290.00
2023-04-15T08:44:38.423Z,98284.89
2023-04-15T08:47:14.438Z,98286.47
2023-04-15T08:49:53.817Z,98282.48
2023-04-15T08:52:41.244Z,98281.48
2023-04-15T08:55:15.595Z,98279.48
2023-04-15T08:57:52.337Z,98272.95
2023-04-15T09:00:26.087Z,98279.77
2023-04-15T09:03:00.448Z,98281.16
2023-04-15T09:05:35.596Z,98283.59
2023-04-15T09:08:09.190Z,98283.23
2023-04-15T09:10:41.789Z,98281.86
2023-04-15T09:13:15.103Z,98287.39
2023-04-15T09:15:48.121Z,98285.67
2023-04-15T09:18:32.300Z,98290.56
2023-04-15T09:21:12.998Z,98287.50
2023-04-15T09:23:58.874Z,98290.80
2023-04-15T09:26:40.413Z,98291.63
2023-04-15T09:29:22.279Z,98294.31
2023-04-15T09:31:54.887Z,98294.56
2023-04-15T09:34:38.128Z,98293.02
2023-04-15T09:37:31.300Z,98297.41
2023-04-15T09:40:05.216Z,98296.84
2023-04-15T09:42:38.189Z,98295.21
2023-04-15T09:45:15.690Z,98289.67
2023-04-15T09:47:49.183Z,98290.30
2023-04-15T09:50:32.750Z,98290.74
2023-04-15T09:53:06.638Z,98291.34
2023-04-15T09:55:52.559Z,98293.27
2023-04-15T09:58:27.517Z,98292.67
2023-04-15T10:01:01.919Z,98293.15
2023-04-15T10:03:37.006Z,98292.02
2023-04-15T10:06:10.746Z,98293.73
2023-04-15T10:08:55.497Z,98291.16
2023-04-15T10:11:31.924Z,98291.85
2023-04-15T10:14:06.125Z,98290.80
2023-04-15T10:16:44.917Z,98292.91
2023-04-15T10:19:24.397Z,98288.43
2023-04-15T10:21:57.790Z,98283.89
2023-04-15T10:24:32.638Z,98283.14
2023-04-15T10:27:09.436Z,98282.90
2023-04-15T10:29:42.427Z,98273.72
2023-04-15T10:32:16.021Z,98269.98
2023-04-15T10:34:54.489Z,98263.41
2023-04-15T10:37:37.833Z,98259.79
2023-04-15T10:40:31.577Z,98260.46
2023-04-15T10:43:05.822Z,98258.96
2023-04-15T10:45:49.456Z,98257.02
2023-04-15T10:48:22.385Z,98256.40
2023-04-15T10:51:02.235Z,98263.94
2023-04-15T10:54:00.869Z,98262.32
2023-04-15T10:56:45.122Z,98264.23
2023-04-15T10:59:32.793Z,98257.46
2023-04-15T11:02:17.191Z,98253.18
2023-04-15T11:05:01.151Z,98254.39
2023-04-15T11:07:58.638Z,98253.08
2023-04-15T11:10:57.838Z,98248.43
2023-04-15T11:13:54.255Z,98249.02
2023-04-15T11:16:48.635Z,98252.95
2023-04-15T11:19:39.427Z,98256.96
2023-04-15T11:22:21.230Z,98256.31
2023-04-15T11:25:06.249Z,98261.09
2023-04-15T11:27:38.886Z,98260.24
2023-04-15T11:30:24.834Z,98261.35
2023-04-15T11:33:01.246Z,98260.10
2023-04-15T11:35:34.820Z,98258.30
2023-04-15T11:38:10.205Z,98261.27
2023-04-15T11:40:46.343Z,98266.52
2023-04-15T11:43:21.837Z,98266.95
2023-04-15T11:46:06.057Z,98266.31
2023-04-15T11:48:43.502Z,98270.00
2023-04-15T11:51:16.763Z,98267.75
2023-04-15T11:53:51.175Z,98273.99
2023-04-15T11:56:25.706Z,98280.46
2023-04-15T11:59:09.482Z,98287.92
2023-04-15T12:01:45.409Z,98293.01
2023-04-15T12:04:38.435Z,98294.90
2023-04-15T12:07:14.195Z,98292.22
2023-04-15T12:10:02.067Z,98293.70
2023-04-15T12:12:45.381Z,98291.30
2023-04-15T12:15:18.638Z,98282.80
2023-04-15T12:17:56.108Z,98276.85
2023-04-15T12:20:32.189Z,98278.48
2023-04-15T12:23:09.931Z,98284.52
2023-04-15T12:25:42.830Z,98294.32
2023-04-15T12:28:15.838Z,98298.40
2023-04-15T12:30:54.059Z,98303.29
2023-04-15T12:33:37.417Z,98314.84
2023-04-15T12:36:12.893Z,98325.61
2023-04-15T12:38:45.468Z,98338.89
2023-04-15T12:41:26.324Z,98345.53
2023-04-15T12:43:58.999Z,98348.00
2023-04-15T12:46:33.796Z,98349.54
2023-04-15T12:49:19.795Z,98364.52
2023-04-15T12:51:57.279Z,98363.17
2023-04-15T12:54:41.258Z,98359.02
2023-04-15T12:57:14.025Z,98357.73
2023-04-15T12:59:46.535Z,98355.41
2023-04-15T13:02:25.689Z,98355.00
2023-04-15T13:04:58.902Z,98350.79
2023-04-15T13:07:36.686Z,98354.26
2023-04-15T13:10:11.954Z,98356.65
2023-04-15T13:12:46.920Z,98362.09
2023-04-15T13:15:21.036Z,98369.22
2023-04-15T13:17:54.044Z,98373.16
2023-04-15T13:20:27.795Z,98384.55
2023-04-15T13:23:01.694Z,98398.06
2023-04-15T13:25:34.248Z,98419.23
2023-04-15T13:28:06.904Z,98434.33
2023-04-15T13:30:43.035Z,98424.67
2023-04-15T13:33:16.881Z,98412.94
2023-04-15T13:35:50.550Z,98410.70
2023-04-15T13:38:23.158Z,98417.39
2023-04-15T13:40:58.027Z,98420.41
2023-04-15T13:43:30.714Z,98418.23
2023-04-15T13:46:04.830Z,98419.92
2023-04-15T13:48:37.536Z,98419.85
2023-04-15T13:51:10.678Z,98416.25
2023-04-15T13:53:43.064Z,98413.09
2023-04-15T13:56:16.162Z,98411.60
2023-04-15T13:58:49.995Z,98420.36
2023-04-15T14:01:22.520Z,98428.20
2023-04-15T14:03:55.199Z,98438.31
2023-04-15T14:06:28.712Z,98441.83
2023-04-15T14:09:01.086Z,98443.41
2023-04-15T14:11:37.834Z,98440.45
2023-04-15T14:14:11.817Z,98441.70
2023-04-15T14:16:44.546Z,98450.52
2023-04-15T14:19:17.309Z,98450.45
2023-04-15T14:21:49.969Z,98456.05
2023-04-15T14:24:24.502Z,98458.20
2023-04-15T14:26:57.628Z,98454.63
2023-04-15T14:29:31.174Z,98453.59
2023-04-15T14:32:11.414Z,98450.17
2023-04-15T14:34:47.362Z,98450.32
2023-04-15T14:37:19.862Z,98448.33
2023-04-15T14:39:52.645Z,98453.73
2023-04-15T14:42:25.015Z,98456.66
2023-04-15T14:45:12.360Z,98461.27
2023-04-15T14:47:56.123Z,98465.66
2023-04-15T14:50:28.874Z,98472.16
2023-04-15T14:53:01.674Z,98469.38
2023-04-15T14:55:35.559Z,98470.52
2023-04-15T14:58:08.328Z,98468.13
2023-04-15T15:00:44.570Z,98471.58
2023-04-15T15:03:17.141Z,98473.08
2023-04-15T15:05:49.745Z,98478.59
2023-04-15T15:08:23.188Z,98478.60
2023-04-15T15:10:58.863Z,98477.34
2023-04-15T15:13:31.686Z,98475.88
2023-04-15T15:16:04.242Z,98478.41
2023-04-15T15:18:37.210Z,98477.27
2023-04-15T15:21:11.599Z,98479.97
2023-04-15T15:23:44.444Z,98475.92
2023-04-15T15:26:19.670Z,98480.11
2023-04-15T15:28:52.564Z,98476.91
2023-04-15T15:31:30.059Z,98465.09
2023-04-15T15:34:22.809Z,98460.45
2023-04-15T15:36:55.546Z,98478.08
2023-04-15T15:39:28.934Z,98483.02
2023-04-15T15:42:01.655Z,98479.58
2023-04-15T15:44:36.338Z,98474.73
2023-04-15T15:47:11.908Z,98467.39
2023-04-15T15:49:57.041Z,98472.69
2023-04-15T15:52:29.808Z,98480.48
2023-04-15T15:55:03.277Z,98485.64
2023-04-15T15:57:35.834Z,98486.39
2023-04-15T16:00:12.543Z,98489.52
2023-04-15T16:05:43.574Z,98481.80
2023-04-15T16:08:16.107Z,98477.52
2023-04-15T16:10:49.023Z,98474.33
2023-04-15T16:13:21.700Z,98473.08
2023-04-15T16:15:56.657Z,98477.63
2023-04-15T16:18:29.595Z,98483.73
2023-04-15T16:21:02.412Z,98484.98
2023-04-15T16:23:35.453Z,98483.80
2023-04-15T16:26:08.007Z,98477.84
2023-04-15T16:28:40.724Z,98479.12
2023-04-15T16:31:13.765Z,98479.34
2023-04-15T16:33:46.411Z,98476.95
2023-04-15T16:36:21.436Z,98482.61
2023-04-15T16:38:56.778Z,98481.02
2023-04-15T16:41:34.331Z,98479.11
2023-04-15T16:44:09.315Z,98484.54
2023-04-15T16:46:42.969Z,98486.47
2023-04-15T16:49:16.144Z,98492.92
2023-04-15T16:51:54.126Z,98493.02
2023-04-15T16:54:29.171Z,98498.72
2023-04-15T16:57:03.654Z,98502.15
2023-04-15T16:59:39.006Z,98505.75
2023-04-15T17:02:13.789Z,98513.62
2023-04-15T17:04:46.774Z,98520.75
2023-04-15T17:07:39.573Z,98520.73
2023-04-15T17:10:17.120Z,98524.92
2023-04-15T17:13:10.465Z,98528.00
2023-04-15T17:15:46.095Z,98528.96
2023-04-15T17:18:28.738Z,98532.55
2023-04-15T17:21:03.685Z,98541.17
2023-04-15T17:23:46.844Z,98546.33
2023-04-15T17:26:20.114Z,98550.39
2023-04-15T17:28:55.936Z,98553.25
2023-04-15T17:31:41.189Z,98555.91
2023-04-15T17:34:49.792Z,98563.30
2023-04-15T17:37:37.094Z,98568.08
2023-04-15T17:40:22.362Z,98570.39
2023-04-15T17:43:06.006Z,98575.85
2023-04-15T17:45:59.655Z,98582.01
2023-04-15T17:48:32.399Z,98590.08
2023-04-15T17:51:06.848Z,98597.77
2023-04-15T17:53:39.524Z,98603.73
2023-04-15T17:56:22.379Z,98608.30
2023-04-15T17:58:54.913Z,98607.61
2023-04-15T18:01:29.899Z,98620.00
2023-04-15T18:04:04.190Z,98623.50
2023-04-15T18:06:57.871Z,98629.96
2023-04-15T18:09:30.535Z,98633.09
2023-04-15T18:12:07.821Z,98637.46
2023-04-15T18:14:43.480Z,98643.91
2023-04-15T18:17:15.937Z,98649.81
2023-04-15T18:19:48.544Z,98657.65
2023-04-15T18:22:24.588Z,98656.77
2023-04-15T18:24:59.228Z,98659.38
2023-04-15T18:27:36.073Z,98658.83
2023-04-15T18:30:11.399Z,98659.70
2023-04-15T18:32:46.685Z,98658.45
2023-04-15T18:35:31.018Z,98657.75
2023-04-15T18:38:03.869Z,98662.09
2023-04-15T18:40:36.373Z,98664.16
2023-04-15T18:43:09.686Z,98664.70
2023-04-15T18:45:43.562Z,98669.90
2023-04-15T18:48:17.655Z,98670.43
2023-04-15T18:50:54.233Z,98669.91
2023-04-15T18:53:48.768Z,98672.34
2023-04-15T18:56:33.919Z,98674.77
2023-04-15T18:59:27.785Z,98676.66
2023-04-15T19:02:13.765Z,98678.21
2023-04-15T19:04:49.145Z,98679.76
2023-04-15T19:07:36.837Z,98678.88
2023-04-15T19:10:10.755Z,98676.92
2023-04-15T19:12:43.272Z,98683.00
2023-04-15T19:15:17.152Z,98682.98
2023-04-15T19:17:50.243Z,98681.38
2023-04-15T19:20:24.200Z,98682.42
2023-04-15T19:22:57.738Z,98688.85
2023-04-15T19:25:30.244Z,98685.54
2023-04-15T19:28:05.397Z,98683.97
2023-04-15T19:30:38.904Z,98690.92
2023-04-15T19:33:23.465Z,98695.26
2023-04-15T19:35:59.593Z,98692.11
2023-04-15T19:38:36.332Z,98693.33
2023-04-15T19:41:11.498Z,98689.19
2023-04-15T19:43:54.987Z,98686.41
2023-04-15T19:46:30.894Z,98689.39
2023-04-15T19:49:04.240Z,98689.25
2023-04-15T19:51:38.304Z,98690.30
2023-04-15T19:54:13.855Z,98689.95
2023-04-15T19:56:46.402Z,98691.34
2023-04-15T19:59:21.416Z,98688.73
2023-04-15T20:01:58.218Z,98690.13
2023-04-15T20:04:34.182Z,98693.44
2023-04-15T20:07:07.307Z,98697.60
2023-04-15T20:09:39.710Z,98701.25
2023-04-15T20:12:51.136Z,98699.68
2023-04-15T20:15:09.512Z,98705.95
2023-04-15T20:17:41.955Z,98705.42
2023-04-15T20:20:27.672Z,98712.02
2023-04-15T20:23:10.644Z,98712.17
2023-04-15T20:25:46.092Z,98711.45
2023-04-15T20:28:30.746Z,98714.58
2023-04-15T20:31:03.892Z,98715.79
2023-04-15T20:33:37.310Z,98721.69
2023-04-15T20:36:09.915Z,98724.30
2023-04-15T20:38:42.334Z,98723.21
2023-04-15T20:41:16.602Z,98723.55
2023-04-15T20:43:49.311Z,98725.09
2023-04-15T20:46:22.727Z,98724.17
2023-04-15T20:48:56.343Z,98723.80
2023-04-15T20:51:33.143Z,98728.61
2023-04-15T20:54:08.829Z,98735.89
2023-04-15T20:56:41.346Z,98737.58
2023-04-15T20:59:13.956Z,98738.05
2023-04-15T21:01:46.924Z,98740.29
2023-04-15T21:04:31.407Z,98743.20
2023-04-15T21:07:03.765Z,98741.77
2023-04-15T21:09:36.506Z,98746.27
2023-04-15T21:12:12.330Z,98745.88
2023-04-15T21:14:44.740Z,98743.23
2023-04-15T21:17:18.507Z,98740.43
2023-04-15T21:19:50.964Z,98744.04
2023-04-15T21:22:23.518Z,98747.48
2023-04-15T21:24:57.036Z,98749.37
2023-04-15T21:27:29.530Z,98750.21
2023-04-15T21:30:05.181Z,98750.54
2023-04-15T21:32:40.403Z,98746.32
2023-04-15T21:35:13.364Z,98745.60
2023-04-15T21:37:46.132Z,98750.63
2023-04-15T21:40:29.244Z,98754.41
2023-04-15T21:43:04.819Z,98757.80
2023-04-15T21:45:39.624Z,98760.70
2023-04-15T21:48:14.014Z,98764.11
2023-04-15T21:50:46.608Z,98768.73
2023-04-15T21:53:19.374Z,98771.79
2023-04-15T21:55:52.366Z,98771.41
2023-04-15T21:58:27.346Z,98773.48
2023-04-15T22:01:00.380Z,98777.60
2023-04-15T22:03:34.980Z,98783.09
2023-04-15T22:06:09.269Z,98783.55
2023-04-15T22:08:55.200Z,98786.27
2023-04-15T22:11:32.584Z,98787.92
2023-04-15T22:14:07.061Z,98789.77
2023-04-15T22:16:39.573Z,98791.12
2023-04-15T22:19:14.737Z,98795.20
2023-04-15T22:21:47.360Z,98794.80
2023-04-15T22:24:38.222Z,98795.77
2023-04-15T22:27:14.535Z,98799.52
2023-04-15T22:29:50.392Z,98802.94
2023-04-15T22:32:22.691Z,98800.30
2023-04-15T22:34:56.612Z,98800.40
2023-04-15T22:37:30.713Z,98799.33
2023-04-15T22:40:06.939Z,98801.54
2023-04-15T22:42:39.849Z,98803.06
2023-04-15T22:45:27.527Z,98804.38
2023-04-15T22:48:00.259Z,98808.51
2023-04-15T22:50:33.040Z,98809.00
2023-04-15T22:53:06.132Z,98812.08
2023-04-15T22:55:51.958Z,98813.08
2023-04-15T22:58:25.123Z,98812.68
2023-04-15T23:00:59.341Z,98812.80
2023-04-15T23:03:32.215Z,98814.17
2023-04-15T23:06:14.595Z,98817.98
2023-04-15T23:08:47.888Z,98816.25
2023-04-15T23:11:20.848Z,98821.28
2023-04-15T23:13:58.354Z,98825.81
2023-04-15T23:16:31.342Z,98831.55
2023-04-15T23:19:06.365Z,98833.50
2023-04-15T23:21:41.131Z,98837.08
2023-04-15T23:24:16.695Z,98840.54
2023-04-15T23:26:49.575Z,98838.77
2023-04-15T23:29:23.488Z,98848.77
2023-04-15T23:31:59.538Z,98849.02
2023-04-15T23:34:32.127Z,98852.18
2023-04-15T23:37:06.009Z,98853.73
2023-04-15T23:39:48.008Z,98855.46
2023-04-15T23:42:24.278Z,98855.27
2023-04-15T23:44:57.246Z,98850.92
2023-04-15T23:47:29.703Z,98854.52
2023-04-15T23:50:02.655Z,98857.27
2023-04-15T23:52:45.015Z,98861.23
2023-04-15T23:55:17.952Z,98857.06
2023-04-15T23:57:50.414Z,98855.98
